createdAt,value
2018-04-15T00:02:16.202Z,6.90
2018-04-15T00:04:43.577Z,7.00
2018-04-15T00:07:10.769Z,7.00
2018-04-15T00:09:37.247Z,7.00
2018-04-15T00:12:04.495Z,7.20
2018-04-15T00:14:30.966Z,7.20
2018-04-15T00:16:57.449Z,7.30
2018-04-15T00:19:23.925Z,7.20
2018-04-15T00:21:50.433Z,7.00
2018-04-15T00:24:16.848Z,6.80
2018-04-15T00:26:43.321Z,6.80
2018-04-15T00:29:09.775Z,6.80
2018-04-15T00:31:36.229Z,6.70
2018-04-15T00:34:02.690Z,6.60
2018-04-15T00:36:29.113Z,6.60
2018-04-15T00:38:55.584Z,6.70
2018-04-15T00:41:22.762Z,6.80
2018-04-15T00:43:49.269Z,6.80
2018-04-15T00:46:16.537Z,6.60
2018-04-15T00:48:43.844Z,6.60
2018-04-15T00:51:10.265Z,6.70
2018-04-15T00:53:48.982Z,6.70
2018-04-15T00:56:15.414Z,6.70
2018-04-15T00:58:41.898Z,6.60
2018-04-15T01:01:09.110Z,6.60
2018-04-15T01:03:35.602Z,6.60
2018-04-15T01:06:02.097Z,6.60
2018-04-15T01:08:28.614Z,6.60
2018-04-15T01:10:55.071Z,6.50
2018-04-15T01:13:22.273Z,6.40
2018-04-15T01:15:48.831Z,6.40
2018-04-15T01:18:15.282Z,6.30
2018-04-15T01:20:41.759Z,6.30
2018-04-15T01:23:08.303Z,6.20
2018-04-15T01:25:34.773Z,6.30
2018-04-15T01:28:01.221Z,6.30
2018-04-15T01:30:27.946Z,6.20
2018-04-15T01:32:54.531Z,6.40
2018-04-15T01:35:21.079Z,6.40
2018-04-15T01:37:47.680Z,6.40
2018-04-15T01:40:14.993Z,6.40
2018-04-15T01:42:41.401Z,6.40
2018-04-15T01:45:07.964Z,6.30
2018-04-15T01:47:34.430Z,6.20
2018-04-15T01:50:01.637Z,6.20
2018-04-15T01:52:28.190Z,6.20
2018-04-15T01:54:54.655Z,6.10
2018-04-15T01:57:21.845Z,6.00
2018-04-15T01:59:48.441Z,5.90
2018-04-15T02:02:15.801Z,6.00
2018-04-15T02:04:43.026Z,5.90
2018-04-15T02:07:09.492Z,5.90
2018-04-15T02:09:36.206Z,5.90
2018-04-15T02:12:02.658Z,5.90
2018-04-15T02:14:29.253Z,6.00
2018-04-15T02:16:55.725Z,6.00
2018-04-15T02:19:22.904Z,6.00
2018-04-15T02:21:49.388Z,6.00
2018-04-15T02:24:15.847Z,5.90
2018-04-15T02:26:43.075Z,5.80
2018-04-15T02:29:09.810Z,5.80
2018-04-15T02:31:36.333Z,5.80
2018-04-15T02:34:02.793Z,5.70
2018-04-15T02:36:37.015Z,5.80
2018-04-15T02:39:04.947Z,5.70
2018-04-15T02:41:31.413Z,5.70
2018-04-15T02:43:58.688Z,5.70
2018-04-15T02:46:25.138Z,5.70
2018-04-15T02:48:51.629Z,5.70
2018-04-15T02:51:18.983Z,5.70
2018-04-15T02:53:46.336Z,5.70
2018-04-15T02:56:13.602Z,5.60
2018-04-15T02:58:40.982Z,5.50
2018-04-15T03:01:07.474Z,5.50
2018-04-15T03:03:33.913Z,5.50
2018-04-15T03:06:01.367Z,5.30
2018-04-15T03:08:28.741Z,5.40
2018-04-15T03:10:56.120Z,5.50
2018-04-15T03:13:22.586Z,5.50
2018-04-15T03:15:49.081Z,5.50
2018-04-15T03:18:15.521Z,5.50
2018-04-15T03:20:41.985Z,5.50
2018-04-15T03:23:08.425Z,5.40
2018-04-15T03:25:34.886Z,5.40
2018-04-15T03:28:02.107Z,5.40
2018-04-15T03:30:28.533Z,5.40
2018-04-15T03:32:55.002Z,5.40
2018-04-15T03:35:22.178Z,5.20
2018-04-15T03:37:48.739Z,5.20
2018-04-15T03:40:15.169Z,5.20
2018-04-15T03:42:41.788Z,5.20
2018-04-15T03:45:08.258Z,5.10
2018-04-15T03:47:34.739Z,5.20
2018-04-15T03:50:02.152Z,5.00
2018-04-15T03:52:28.641Z,5.00
2018-04-15T03:54:55.244Z,4.80
2018-04-15T03:57:21.656Z,5.00
2018-04-15T03:59:48.189Z,4.90
2018-04-15T04:02:14.649Z,4.90
2018-04-15T04:04:41.273Z,5.00
2018-04-15T04:07:07.869Z,5.00
2018-04-15T04:09:34.383Z,5.10
2018-04-15T04:12:00.834Z,5.10
2018-04-15T04:14:27.315Z,5.10
2018-04-15T04:16:53.789Z,4.90
2018-04-15T04:19:32.433Z,5.00
2018-04-15T04:22:11.173Z,5.00
2018-04-15T04:24:49.971Z,5.00
2018-04-15T04:27:16.425Z,5.00
2018-04-15T04:29:42.872Z,4.80
2018-04-15T04:32:10.163Z,4.80
2018-04-15T04:34:36.652Z,4.80
2018-04-15T04:37:03.084Z,4.80
2018-04-15T04:39:29.594Z,4.80
2018-04-15T04:41:56.037Z,4.80
2018-04-15T04:44:22.494Z,4.90
2018-04-15T04:46:48.942Z,5.00
2018-04-15T04:49:15.458Z,5.00
2018-04-15T04:51:41.917Z,5.10
2018-04-15T04:54:09.082Z,5.20
2018-04-15T04:56:35.593Z,5.20
2018-04-15T04:59:02.081Z,5.30
2018-04-15T05:01:28.713Z,5.30
2018-04-15T05:03:55.197Z,5.30
2018-04-15T05:06:21.807Z,5.30
2018-04-15T05:08:48.292Z,5.20
2018-04-15T05:11:14.778Z,5.20
2018-04-15T05:13:41.221Z,5.30
2018-04-15T05:16:07.711Z,5.30
2018-04-15T05:18:34.126Z,5.40
2018-04-15T05:21:00.587Z,5.50
2018-04-15T05:23:27.046Z,5.50
2018-04-15T05:25:53.862Z,5.70
2018-04-15T05:28:20.365Z,5.60
2018-04-15T05:30:47.541Z,5.60
2018-04-15T05:33:14.003Z,5.60
2018-04-15T05:35:40.514Z,5.60
2018-04-15T05:38:06.973Z,5.70
2018-04-15T05:40:33.548Z,6.00
2018-04-15T05:43:00.793Z,6.60
2018-04-15T05:45:27.968Z,7.00
2018-04-15T05:47:54.401Z,6.90
2018-04-15T05:50:20.861Z,7.40
2018-04-15T05:52:47.284Z,7.70
2018-04-15T05:55:13.837Z,8.20
2018-04-15T05:57:40.277Z,8.90
2018-04-15T06:00:06.778Z,9.20
2018-04-15T06:02:40.262Z,9.40
2018-04-15T06:05:07.463Z,8.90
2018-04-15T06:07:33.922Z,8.90
2018-04-15T06:10:01.882Z,9.00
2018-04-15T06:12:28.464Z,9.00
2018-04-15T06:14:54.934Z,9.20
2018-04-15T06:17:21.568Z,9.30
2018-04-15T06:19:47.995Z,9.30
2018-04-15T06:22:21.451Z,9.70
2018-04-15T06:24:47.947Z,9.80
2018-04-15T06:27:14.414Z,10.30
2018-04-15T06:29:41.633Z,10.30
2018-04-15T06:32:08.113Z,10.20
2018-04-15T06:34:34.573Z,10.10
2018-04-15T06:37:01.031Z,10.20
2018-04-15T06:39:27.487Z,9.90
2018-04-15T06:41:53.946Z,9.90
2018-04-15T06:44:20.430Z,9.90
2018-04-15T06:46:46.931Z,10.00
2018-04-15T06:49:13.422Z,10.10
2018-04-15T06:51:39.838Z,10.10
2018-04-15T06:54:06.317Z,10.20
2018-04-15T06:56:32.797Z,10.30
2018-04-15T06:58:59.232Z,10.10
2018-04-15T07:01:25.737Z,10.00
2018-04-15T07:03:52.224Z,10.10
2018-04-15T07:06:19.425Z,11.10
2018-04-15T07:08:45.902Z,11.00
2018-04-15T07:11:12.349Z,11.50
2018-04-15T07:13:39.735Z,11.80
2018-04-15T07:16:06.175Z,11.70
2018-04-15T07:18:32.729Z,12.50
2018-04-15T07:20:59.195Z,12.90
2018-04-15T07:23:32.777Z,13.10
2018-04-15T07:25:59.233Z,13.30
2018-04-15T07:28:25.694Z,13.60
2018-04-15T07:30:52.181Z,13.70
2018-04-15T07:33:18.638Z,14.00
2018-04-15T07:35:45.997Z,14.00
2018-04-15T07:38:13.203Z,14.00
2018-04-15T07:40:39.657Z,14.00
2018-04-15T07:43:06.173Z,14.20
2018-04-15T07:48:28.534Z,13.60
2018-04-15T07:50:55.058Z,13.10
2018-04-15T07:53:21.550Z,12.80
2018-04-15T07:55:48.827Z,12.80
2018-04-15T07:58:15.375Z,12.70
2018-04-15T08:00:41.869Z,13.10
2018-04-15T08:03:09.085Z,14.20
2018-04-15T08:05:36.073Z,14.20
2018-04-15T08:08:03.435Z,14.90
2018-04-15T08:10:30.781Z,15.50
2018-04-15T08:12:58.013Z,16.30
2018-04-15T08:15:24.477Z,16.30
2018-04-15T08:17:51.008Z,15.80
2018-04-15T08:20:17.529Z,15.60
2018-04-15T08:22:44.782Z,16.00
2018-04-15T08:25:11.988Z,15.80
2018-04-15T08:27:38.581Z,15.70
2018-04-15T08:30:05.820Z,15.00
2018-04-15T08:32:32.286Z,14.90
2018-04-15T08:34:59.212Z,15.00
2018-04-15T08:37:25.688Z,15.20
2018-04-15T08:39:52.214Z,16.00
2018-04-15T08:42:19.711Z,16.80
2018-04-15T08:44:46.240Z,17.30
2018-04-15T08:47:12.757Z,17.30
2018-04-15T08:49:39.206Z,16.90
2018-04-15T08:52:06.987Z,17.10
2018-04-15T08:54:41.261Z,17.80
2018-04-15T08:57:07.754Z,17.80
2018-04-15T08:59:34.237Z,18.20
2018-04-15T09:02:00.781Z,18.20
2018-04-15T09:04:27.305Z,17.90
2018-04-15T09:06:53.876Z,17.80
2018-04-15T09:09:21.219Z,17.90
2018-04-15T09:11:48.264Z,17.90
2018-04-15T09:14:14.955Z,17.50
2018-04-15T09:16:41.772Z,17.30
2018-04-15T09:19:08.329Z,17.00
2018-04-15T09:21:35.712Z,16.70
2018-04-15T09:24:02.752Z,16.60
2018-04-15T09:26:29.769Z,16.80
2018-04-15T09:28:56.643Z,16.60
2018-04-15T09:31:24.384Z,16.90
2018-04-15T09:33:50.899Z,16.70
2018-04-15T09:36:17.795Z,16.50
2018-04-15T09:38:44.322Z,16.80
2018-04-15T09:41:12.077Z,16.90
2018-04-15T09:43:39.178Z,17.10
2018-04-15T09:46:05.835Z,17.10
2018-04-15T09:48:32.423Z,17.10
2018-04-15T09:50:58.924Z,16.70
2018-04-15T09:53:25.560Z,16.60
2018-04-15T09:55:53.726Z,16.70
2018-04-15T09:58:20.374Z,16.80
2018-04-15T10:00:47.141Z,16.90
2018-04-15T10:03:13.815Z,17.10
2018-04-15T10:05:41.845Z,17.50
2018-04-15T10:08:08.785Z,17.50
2018-04-15T10:10:36.225Z,17.50
2018-04-15T10:13:02.859Z,17.40
2018-04-15T10:15:29.733Z,17.40
2018-04-15T10:17:56.260Z,17.50
2018-04-15T10:20:22.797Z,17.10
2018-04-15T10:22:49.344Z,17.30
2018-04-15T10:25:15.828Z,17.60
2018-04-15T10:27:42.543Z,17.80
2018-04-15T10:30:10.294Z,17.80
2018-04-15T10:32:36.835Z,17.70
2018-04-15T10:35:03.289Z,17.80
2018-04-15T10:37:30.673Z,18.50
2018-04-15T10:39:57.202Z,18.50
2018-04-15T10:42:23.670Z,18.50
2018-04-15T10:44:51.109Z,18.20
2018-04-15T10:47:17.682Z,18.60
2018-04-15T10:49:51.261Z,18.40
2018-04-15T10:52:17.772Z,18.60
2018-04-15T10:54:44.259Z,18.80
2018-04-15T10:57:11.501Z,18.70
2018-04-15T10:59:37.945Z,18.60
2018-04-15T11:02:05.192Z,19.00
2018-04-15T11:04:31.669Z,19.00
2018-04-15T11:06:58.203Z,19.10
2018-04-15T11:09:24.831Z,19.30
2018-04-15T11:11:51.347Z,19.30
2018-04-15T11:14:19.549Z,19.50
2018-04-15T11:16:46.091Z,19.40
2018-04-15T11:19:12.554Z,19.50
2018-04-15T11:21:38.996Z,19.30
2018-04-15T11:24:05.507Z,19.20
2018-04-15T11:26:32.050Z,19.70
2018-04-15T11:28:58.530Z,20.20
2018-04-15T11:31:24.951Z,20.60
2018-04-15T11:33:52.173Z,20.30
2018-04-15T11:36:18.686Z,20.30
2018-04-15T11:38:45.179Z,20.20
2018-04-15T11:41:12.405Z,20.50
2018-04-15T11:43:38.949Z,20.50
2018-04-15T11:46:05.447Z,21.10
2018-04-15T11:48:32.042Z,22.10
2018-04-15T11:50:59.498Z,23.10
2018-04-15T11:53:26.834Z,22.90
2018-04-15T11:55:54.105Z,23.40
2018-04-15T11:58:21.502Z,23.50
2018-04-15T12:00:48.006Z,23.50
2018-04-15T12:03:14.590Z,23.70
2018-04-15T12:05:41.114Z,23.80
2018-04-15T12:08:07.728Z,23.60
2018-04-15T12:10:34.200Z,23.20
2018-04-15T12:13:00.713Z,22.00
2018-04-15T12:15:27.194Z,22.00
2018-04-15T12:17:54.430Z,23.10
2018-04-15T12:20:21.009Z,23.10
2018-04-15T12:22:47.470Z,24.30
2018-04-15T12:25:13.965Z,25.10
2018-04-15T12:27:40.502Z,25.00
2018-04-15T12:30:06.987Z,25.20
2018-04-15T12:32:33.483Z,25.30
2018-04-15T12:35:00.027Z,26.00
2018-04-15T12:37:26.455Z,26.30
2018-04-15T12:39:52.958Z,27.10
2018-04-15T12:42:20.177Z,27.80
2018-04-15T12:44:46.659Z,27.80
2018-04-15T12:47:13.291Z,28.40
2018-04-15T12:49:39.783Z,27.60
2018-04-15T12:52:06.252Z,27.00
2018-04-15T12:54:33.465Z,27.30
2018-04-15T12:56:59.978Z,27.30
2018-04-15T12:59:26.686Z,26.80
2018-04-15T13:01:53.929Z,26.90
2018-04-15T13:04:21.427Z,25.70
2018-04-15T13:06:47.925Z,25.60
2018-04-15T13:09:15.254Z,26.80
2018-04-15T13:11:41.781Z,26.70
2018-04-15T13:14:08.291Z,26.50
2018-04-15T13:16:34.765Z,27.10
2018-04-15T13:19:01.356Z,28.20
2018-04-15T13:21:27.814Z,28.60
2018-04-15T13:23:54.403Z,29.90
2018-04-15T13:26:22.635Z,29.80
2018-04-15T13:28:49.306Z,30.10
2018-04-15T13:31:15.773Z,29.50
2018-04-15T13:33:42.254Z,29.20
2018-04-15T13:36:08.740Z,29.50
2018-04-15T13:38:35.226Z,29.30
2018-04-15T13:41:03.155Z,26.80
2018-04-15T13:43:29.694Z,26.70
2018-04-15T13:45:56.150Z,26.20
2018-04-15T13:48:22.778Z,27.00
2018-04-15T13:50:49.306Z,28.10
2018-04-15T13:53:15.750Z,27.40
2018-04-15T13:55:42.250Z,24.70
2018-04-15T13:58:08.811Z,24.30
2018-04-15T14:00:35.861Z,24.30
2018-04-15T14:03:02.319Z,24.00
2018-04-15T14:05:29.573Z,22.80
2018-04-15T14:07:56.797Z,22.00
2018-04-15T14:10:23.298Z,21.90
2018-04-15T14:12:49.893Z,22.10
2018-04-15T14:15:16.385Z,22.10
2018-04-15T14:17:42.942Z,22.00
2018-04-15T14:20:09.358Z,22.20
2018-04-15T14:22:35.908Z,22.30
2018-04-15T14:25:02.353Z,22.50
2018-04-15T14:27:28.838Z,22.60
2018-04-15T14:29:55.286Z,21.90
2018-04-15T14:32:21.823Z,21.80
2018-04-15T14:34:48.275Z,22.00
2018-04-15T14:37:14.806Z,22.10
2018-04-15T14:39:41.262Z,22.30
2018-04-15T14:42:07.741Z,22.60
2018-04-15T14:44:34.604Z,23.00
2018-04-15T14:47:01.244Z,23.20
2018-04-15T14:49:27.942Z,23.40
2018-04-15T14:51:54.374Z,23.30
2018-04-15T14:54:21.141Z,23.10
2018-04-15T14:56:47.816Z,23.10
2018-04-15T14:59:14.306Z,23.40
2018-04-15T15:01:40.757Z,23.60
2018-04-15T15:04:07.241Z,24.20
2018-04-15T15:06:34.558Z,25.50
2018-04-15T15:09:01.138Z,25.50
2018-04-15T15:11:27.671Z,25.50
2018-04-15T15:13:54.928Z,25.00
2018-04-15T15:16:22.154Z,24.90
2018-04-15T15:18:48.638Z,24.90
2018-04-15T15:21:15.115Z,23.80
2018-04-15T15:23:42.596Z,23.30
2018-04-15T15:26:09.816Z,22.60
2018-04-15T15:28:36.360Z,22.60
2018-04-15T15:31:02.806Z,22.50
2018-04-15T15:33:29.305Z,21.80
2018-04-15T15:35:55.757Z,21.60
2018-04-15T15:38:22.246Z,21.60
2018-04-15T15:40:48.711Z,21.60
2018-04-15T15:43:15.241Z,21.50
2018-04-15T15:45:41.770Z,21.50
2018-04-15T15:48:08.246Z,21.60
2018-04-15T15:50:34.781Z,21.70
2018-04-15T15:53:01.448Z,21.80
2018-04-15T15:55:27.938Z,21.90
2018-04-15T15:57:54.519Z,21.90
2018-04-15T16:00:20.989Z,22.00
2018-04-15T16:02:47.536Z,22.10
2018-04-15T16:05:14.006Z,22.20
2018-04-15T16:07:41.219Z,20.60
2018-04-15T16:10:07.809Z,20.60
2018-04-15T16:12:34.322Z,19.80
2018-04-15T16:15:01.538Z,19.10
2018-04-15T16:17:28.048Z,19.10
2018-04-15T16:19:54.544Z,19.10
2018-04-15T16:22:21.774Z,19.50
2018-04-15T16:24:48.247Z,19.50
2018-04-15T16:27:14.702Z,19.50
2018-04-15T16:29:41.159Z,19.50
2018-04-15T16:32:07.617Z,19.50
2018-04-15T16:34:34.213Z,19.40
2018-04-15T16:37:00.659Z,19.40
2018-04-15T16:39:27.343Z,19.40
2018-04-15T16:41:54.607Z,19.00
2018-04-15T16:44:21.866Z,18.90
2018-04-15T16:46:48.326Z,18.90
2018-04-15T16:49:14.848Z,18.70
2018-04-15T16:51:41.454Z,18.70
2018-04-15T16:54:08.664Z,18.50
2018-04-15T16:56:35.189Z,18.40
2018-04-15T16:59:01.662Z,18.40
2018-04-15T17:01:28.928Z,18.20
2018-04-15T17:03:56.166Z,18.10
2018-04-15T17:06:23.444Z,18.10
2018-04-15T17:08:50.728Z,18.10
2018-04-15T17:11:17.261Z,18.10
2018-04-15T17:13:43.742Z,18.00
2018-04-15T17:16:11.019Z,18.00
2018-04-15T17:18:37.555Z,18.00
2018-04-15T17:21:04.026Z,18.00
2018-04-15T17:23:30.741Z,18.00
2018-04-15T17:25:57.308Z,17.90
2018-04-15T17:28:23.883Z,17.80
2018-04-15T17:30:51.128Z,17.60
2018-04-15T17:33:17.939Z,17.60
2018-04-15T17:35:48.323Z,17.50
2018-04-15T17:38:21.977Z,17.50
2018-04-15T17:40:49.224Z,17.40
2018-04-15T17:45:57.459Z,17.40
2018-04-15T17:48:24.105Z,17.30
2018-04-15T17:50:50.632Z,17.20
2018-04-15T17:53:17.865Z,17.20
2018-04-15T17:55:44.424Z,17.20
2018-04-15T17:58:10.960Z,17.10
2018-04-15T18:00:37.879Z,17.10
2018-04-15T18:03:04.871Z,17.10
2018-04-15T18:05:32.152Z,16.90
2018-04-15T18:07:58.772Z,16.90
2018-04-15T18:10:25.401Z,16.90
2018-04-15T18:12:52.624Z,16.90
2018-04-15T18:15:19.220Z,16.80
2018-04-15T18:17:45.728Z,16.90
2018-04-15T18:20:12.385Z,16.80
2018-04-15T18:22:39.598Z,16.60
2018-04-15T18:25:06.812Z,16.50
2018-04-15T18:27:33.338Z,16.50
2018-04-15T18:29:59.811Z,16.50
2018-04-15T18:32:26.736Z,16.40
2018-04-15T18:34:53.389Z,16.40
2018-04-15T18:37:19.945Z,16.30
2018-04-15T18:39:47.171Z,16.10
2018-04-15T18:42:13.679Z,16.00
2018-04-15T18:44:40.199Z,16.20
2018-04-15T18:47:06.755Z,16.20
2018-04-15T18:49:38.588Z,16.10
2018-04-15T18:52:05.131Z,16.10
2018-04-15T18:54:31.669Z,16.00
2018-04-15T18:56:58.173Z,15.90
2018-04-15T18:59:25.453Z,15.70
2018-04-15T19:01:51.920Z,15.70
2018-04-15T19:04:18.605Z,15.60
2018-04-15T19:06:45.845Z,15.40
2018-04-15T19:09:14.793Z,15.50
2018-04-15T19:11:41.244Z,15.50
2018-04-15T19:14:07.977Z,15.50
2018-04-15T19:16:35.191Z,15.40
2018-04-15T19:19:01.861Z,15.40
2018-04-15T19:21:28.416Z,15.30
2018-04-15T19:23:54.966Z,15.30
2018-04-15T19:26:22.309Z,15.30
2018-04-15T19:28:48.841Z,15.20
2018-04-15T19:31:15.448Z,15.20
2018-04-15T19:33:41.969Z,15.20
2018-04-15T19:36:08.507Z,15.10
2018-04-15T19:38:35.142Z,15.10
2018-04-15T19:41:01.650Z,15.10
2018-04-15T19:43:28.237Z,15.20
2018-04-15T19:45:54.739Z,15.20
2018-04-15T19:48:21.292Z,15.20
2018-04-15T19:50:47.738Z,15.10
2018-04-15T19:53:22.438Z,14.80
2018-04-15T19:55:49.390Z,14.70
2018-04-15T19:58:15.944Z,14.60
2018-04-15T20:00:42.549Z,14.50
2018-04-15T20:03:09.223Z,14.50
2018-04-15T20:05:36.213Z,14.40
2018-04-15T20:08:02.778Z,14.50
2018-04-15T20:10:29.337Z,14.60
2018-04-15T20:12:55.975Z,14.60
2018-04-15T20:15:22.658Z,14.60
2018-04-15T20:17:49.960Z,14.70
2018-04-15T20:20:16.606Z,14.60
2018-04-15T20:22:43.399Z,14.70
2018-04-15T20:25:10.457Z,14.60
2018-04-15T20:27:37.065Z,14.40
2018-04-15T20:30:04.430Z,14.20
2018-04-15T20:32:30.990Z,14.20
2018-04-15T20:34:57.631Z,14.10
2018-04-15T20:37:24.438Z,14.10
2018-04-15T20:39:52.062Z,13.80
2018-04-15T20:42:19.460Z,13.70
2018-04-15T20:44:46.718Z,13.80
2018-04-15T20:47:14.107Z,13.80
2018-04-15T20:49:40.700Z,13.80
2018-04-15T20:52:08.022Z,13.80
2018-04-15T20:54:34.558Z,13.80
2018-04-15T20:57:01.068Z,13.80
2018-04-15T20:59:27.578Z,13.90
2018-04-15T21:01:54.161Z,13.90
2018-04-15T21:04:20.729Z,13.90
2018-04-15T21:06:47.977Z,13.90
2018-04-15T21:09:15.246Z,14.00
2018-04-15T21:11:41.768Z,14.00
2018-04-15T21:14:08.991Z,14.20
2018-04-15T21:16:35.483Z,14.20
2018-04-15T21:19:01.981Z,14.10
2018-04-15T21:21:29.278Z,14.10
2018-04-15T21:23:55.775Z,14.10
2018-04-15T21:26:23.025Z,14.00
2018-04-15T21:28:50.325Z,13.90
2018-04-15T21:31:16.825Z,13.90
2018-04-15T21:33:43.392Z,13.80
2018-04-15T21:36:09.918Z,13.80
2018-04-15T21:38:36.405Z,13.90
2018-04-15T21:41:02.833Z,13.90
2018-04-15T21:43:29.336Z,13.90
2018-04-15T21:45:55.770Z,13.90
2018-04-15T21:48:22.758Z,13.80
2018-04-15T21:50:49.980Z,13.70
2018-04-15T21:53:16.641Z,13.70
2018-04-15T21:55:43.118Z,13.70
2018-04-15T21:58:09.617Z,13.70
2018-04-15T22:00:36.848Z,13.70
2018-04-15T22:03:03.275Z,13.70
2018-04-15T22:05:29.819Z,13.70
2018-04-15T22:07:57.068Z,13.70
2018-04-15T22:10:23.525Z,13.70
2018-04-15T22:12:50.714Z,13.50
2018-04-15T22:15:17.279Z,13.50
2018-04-15T22:17:43.687Z,13.50
2018-04-15T22:20:10.232Z,13.50
2018-04-15T22:22:36.694Z,13.50
2018-04-15T22:25:03.184Z,13.50
2018-04-15T22:27:29.623Z,13.50
2018-04-15T22:29:56.048Z,13.50
2018-04-15T22:32:22.552Z,13.50
2018-04-15T22:34:49.773Z,13.40
2018-04-15T22:37:16.349Z,13.40
2018-04-15T22:39:42.801Z,13.30
2018-04-15T22:42:09.261Z,13.20
2018-04-15T22:44:35.672Z,13.10
2018-04-15T22:47:02.202Z,13.10
2018-04-15T22:49:28.681Z,13.20
2018-04-15T22:51:55.973Z,13.10
2018-04-15T22:54:22.442Z,13.10
2018-04-15T22:56:48.929Z,13.00
2018-04-15T22:59:16.199Z,13.10
2018-04-15T23:01:42.777Z,13.10
2018-04-15T23:04:09.247Z,13.10
2018-04-15T23:06:36.537Z,13.00
2018-04-15T23:09:02.990Z,13.00
2018-04-15T23:11:29.414Z,13.00
2018-04-15T23:13:55.866Z,13.10
2018-04-15T23:16:22.349Z,13.10
2018-04-15T23:18:48.821Z,13.10
2018-04-15T23:21:15.261Z,13.20
2018-04-15T23:23:41.728Z,13.10
2018-04-15T23:26:08.972Z,13.10
2018-04-15T23:28:36.186Z,13.10
2018-04-15T23:31:02.627Z,13.00
2018-04-15T23:33:29.057Z,12.90
2018-04-15T23:35:55.518Z,12.80
2018-04-15T23:38:21.998Z,12.90
2018-04-15T23:40:48.443Z,12.90
2018-04-15T23:43:14.975Z,12.80
2018-04-15T23:45:41.426Z,12.80
2018-04-15T23:48:07.981Z,12.80
2018-04-15T23:50:34.452Z,12.80
2018-04-15T23:53:00.970Z,12.70
2018-04-15T23:55:28.221Z,12.60
2018-04-15T23:57:55.472Z,12.50
